createdAt,value
2019-04-24T00:00:29.292Z,14.60
2019-04-24T00:01:20.783Z,13.60
2019-04-24T00:02:30.969Z,13.50
2019-04-24T00:03:19.588Z,15.00
2019-04-24T00:05:30.877Z,14.20
2019-04-24T00:06:20.274Z,14.70
2019-04-24T00:07:16.883Z,14.20
2019-04-24T00:08:30.338Z,14.20
2019-04-24T00:09:12.752Z,13.90
2019-04-24T00:10:22.560Z,15.30
2019-04-24T00:14:23.566Z,13.60
2019-04-24T00:16:15.451Z,14.10
2019-04-24T00:18:37.488Z,14.40
2019-04-24T00:19:27.849Z,14.00
2019-04-24T00:21:29.818Z,15.10
2019-04-24T00:22:14.667Z,14.50
2019-04-24T00:24:25.659Z,14.40
2019-04-24T00:25:23.291Z,14.20
2019-04-24T00:26:16.328Z,14.80
2019-04-24T00:28:22.999Z,14.50
2019-04-24T00:29:40.790Z,14.20
2019-04-24T00:30:19.513Z,16.80
2019-04-24T00:31:16.297Z,14.70
2019-04-24T00:32:16.601Z,13.80
2019-04-24T00:33:20.499Z,14.20
2019-04-24T00:34:22.443Z,14.80
2019-04-24T00:37:24.716Z,14.60
2019-04-24T00:38:20.717Z,14.10
2019-04-24T00:39:20.766Z,14.20
2019-04-24T00:40:17.835Z,14.60
2019-04-24T00:45:22.233Z,15.20
2019-04-24T00:46:32.908Z,14.70
2019-04-24T00:48:27.239Z,15.70
2019-04-24T00:49:32.107Z,14.50
2019-04-24T00:50:14.955Z,15.00
2019-04-24T00:51:31.490Z,15.00
2019-04-24T00:52:16.430Z,15.00
2019-04-24T00:55:18.209Z,14.50
2019-04-24T00:56:30.051Z,15.70
2019-04-24T00:57:25.965Z,15.20
2019-04-24T00:58:32.275Z,15.20
2019-04-24T01:00:26.935Z,15.70
2019-04-24T01:01:34.985Z,14.50
2019-04-24T01:02:21.422Z,15.30
2019-04-24T01:04:51.603Z,15.20
2019-04-24T01:05:39.325Z,14.80
2019-04-24T01:06:36.244Z,15.20
2019-04-24T01:08:23.618Z,14.40
2019-04-24T01:09:33.328Z,14.70
2019-04-24T01:11:18.946Z,14.70
2019-04-24T01:12:32.238Z,14.60
2019-04-24T01:13:33.299Z,15.20
2019-04-24T01:14:19.437Z,17.00
2019-04-24T01:15:28.237Z,14.90
2019-04-24T01:16:33.123Z,14.90
2019-04-24T01:17:33.789Z,15.00
2019-04-24T01:18:27.622Z,15.10
2019-04-24T01:21:23.640Z,14.50
2019-04-24T01:22:38.907Z,15.30
2019-04-24T01:24:21.172Z,14.60
2019-04-24T01:25:37.663Z,15.60
2019-04-24T01:26:31.476Z,14.50
2019-04-24T01:27:23.954Z,14.40
2019-04-24T01:28:24.997Z,15.70
2019-04-24T01:29:23.991Z,15.60
2019-04-24T01:30:47.094Z,15.50
2019-04-24T01:32:33.104Z,14.90
2019-04-24T01:33:30.339Z,15.00
2019-04-24T01:34:32.002Z,14.50
2019-04-24T01:35:27.669Z,15.50
2019-04-24T01:36:39.195Z,15.20
2019-04-24T01:38:29.146Z,15.60
2019-04-24T01:39:41.107Z,15.40
2019-04-24T01:40:21.623Z,14.90
2019-04-24T01:42:32.833Z,15.50
2019-04-24T01:43:28.598Z,16.50
2019-04-24T01:44:31.933Z,15.10
2019-04-24T01:45:29.300Z,14.70
2019-04-24T01:46:23.487Z,15.20
2019-04-24T01:49:38.039Z,15.10
2019-04-24T01:51:29.830Z,15.20
2019-04-24T01:53:23.297Z,15.00
2019-04-24T01:54:33.389Z,15.20
2019-04-24T01:55:22.306Z,17.40
2019-04-24T01:57:43.185Z,15.50
2019-04-24T01:58:29.664Z,15.20
2019-04-24T01:59:43.768Z,15.80
2019-04-24T02:00:35.582Z,15.50
2019-04-24T02:01:28.547Z,15.00
2019-04-24T02:03:32.864Z,15.30
2019-04-24T02:04:34.021Z,15.60
2019-04-24T02:08:29.225Z,16.70
2019-04-24T02:09:33.190Z,15.90
2019-04-24T02:10:43.220Z,14.80
2019-04-24T02:11:36.631Z,14.80
2019-04-24T02:12:45.463Z,15.70
2019-04-24T02:13:28.249Z,16.00
2019-04-24T02:14:31.534Z,15.90
2019-04-24T02:15:32.380Z,15.80
2019-04-24T02:16:27.870Z,15.40
2019-04-24T02:17:41.546Z,15.00
2019-04-24T02:18:32.954Z,15.50
2019-04-24T02:19:25.778Z,14.60
2019-04-24T02:20:37.179Z,14.20
2019-04-24T02:21:33.848Z,14.70
2019-04-24T02:22:31.707Z,14.90
2019-04-24T02:24:35.880Z,14.60
2019-04-24T02:26:28.454Z,13.80
2019-04-24T02:29:32.723Z,13.80
2019-04-24T02:31:44.407Z,13.50
2019-04-24T02:32:58.295Z,14.20
2019-04-24T02:33:50.904Z,14.00
2019-04-24T02:34:27.981Z,13.80
2019-04-24T02:35:56.099Z,13.50
2019-04-24T02:36:37.719Z,14.30
2019-04-24T02:39:00.104Z,14.00
2019-04-24T02:40:37.062Z,14.00
2019-04-24T02:41:44.619Z,14.00
2019-04-24T02:46:41.383Z,10.70
2019-04-24T02:49:04.509Z,11.30
2019-04-24T02:50:36.542Z,13.90
2019-04-24T02:52:13.786Z,12.90
2019-04-24T02:52:42.537Z,13.90
2019-04-24T02:53:40.985Z,12.80
2019-04-24T02:54:54.750Z,12.40
2019-04-24T02:55:21.125Z,13.70
2019-04-24T02:57:01.178Z,13.20
2019-04-24T02:57:48.543Z,13.50
2019-04-24T02:59:47.635Z,13.80
2019-04-24T03:01:45.069Z,14.70
2019-04-24T03:03:52.652Z,15.00
2019-04-24T03:05:53.377Z,14.40
2019-04-24T03:06:53.075Z,15.00
2019-04-24T03:08:04.189Z,14.80
2019-04-24T03:10:07.909Z,14.90
2019-04-24T03:10:42.039Z,15.10
2019-04-24T03:11:59.113Z,15.20
2019-04-24T03:13:50.823Z,15.10
2019-04-24T03:14:51.955Z,15.30
2019-04-24T03:20:57.705Z,14.30
2019-04-24T03:22:40.847Z,14.60
2019-04-24T03:23:42.353Z,14.60
2019-04-24T03:33:07.336Z,14.90
2019-04-24T03:33:59.898Z,13.50
2019-04-24T03:42:22.848Z,14.90
2019-04-24T03:44:25.230Z,15.70
2019-04-24T03:46:42.779Z,14.30
2019-04-24T03:48:09.707Z,15.10
2019-04-24T03:48:51.622Z,14.40
2019-04-24T03:49:50.290Z,14.70
2019-04-24T03:52:44.459Z,14.60
2019-04-24T03:53:59.418Z,14.90
2019-04-24T03:54:56.205Z,14.60
2019-04-24T03:55:56.444Z,15.10
2019-04-24T03:56:41.689Z,14.50
2019-04-24T03:57:56.600Z,14.70
2019-04-24T03:58:58.630Z,14.00
2019-04-24T04:00:11.625Z,14.20
2019-04-24T04:00:49.184Z,15.00
2019-04-24T04:01:57.022Z,14.50
2019-04-24T04:02:55.234Z,15.00
2019-04-24T04:03:58.199Z,14.60
2019-04-24T04:05:40.202Z,14.40
2019-04-24T04:07:55.097Z,14.50
2019-04-24T04:09:03.588Z,14.20
2019-04-24T04:12:04.828Z,14.20
2019-04-24T04:13:51.780Z,13.90
2019-04-24T04:15:00.017Z,14.60
2019-04-24T04:15:40.642Z,13.80
2019-04-24T04:19:50.661Z,13.80
2019-04-24T04:21:02.574Z,12.80
2019-04-24T04:21:58.639Z,13.30
2019-04-24T04:25:57.690Z,13.40
2019-04-24T04:26:50.689Z,13.50
2019-04-24T04:29:00.170Z,13.70
2019-04-24T04:29:51.270Z,15.90
2019-04-24T04:32:58.808Z,14.20
2019-04-24T04:34:05.018Z,13.60
2019-04-24T04:34:54.413Z,14.00
2019-04-24T04:35:56.865Z,14.50
2019-04-24T04:36:55.913Z,13.50
2019-04-24T04:38:47.931Z,13.70
2019-04-24T04:40:04.322Z,13.40
2019-04-24T04:46:10.348Z,13.30
2019-04-24T04:47:33.846Z,13.60
2019-04-24T04:50:08.598Z,12.10
2019-04-24T04:52:06.171Z,12.50
2019-04-24T04:53:13.576Z,11.30
2019-04-24T04:53:46.911Z,11.80
2019-04-24T04:55:32.817Z,12.00
2019-04-24T04:56:51.431Z,12.00
2019-04-24T04:58:00.596Z,12.70
2019-04-24T04:59:54.847Z,11.70
2019-04-24T05:01:06.353Z,11.90
2019-04-24T05:01:59.973Z,12.60
2019-04-24T05:03:01.192Z,11.90
2019-04-24T05:03:48.680Z,12.20
2019-04-24T05:04:56.676Z,13.90
2019-04-24T05:08:15.437Z,12.70
2019-04-24T05:09:26.698Z,13.10
2019-04-24T05:11:08.253Z,16.10
2019-04-24T05:12:01.138Z,12.80
2019-04-24T05:12:49.617Z,12.70
2019-04-24T05:14:09.276Z,13.20
2019-04-24T05:16:21.042Z,12.50
2019-04-24T05:19:38.791Z,12.70
2019-04-24T05:20:53.340Z,13.00
2019-04-24T05:22:00.491Z,14.00
2019-04-24T05:22:45.684Z,13.80
2019-04-24T05:24:01.075Z,12.80
2019-04-24T05:24:50.979Z,13.00
2019-04-24T05:25:59.740Z,12.70
2019-04-24T05:27:43.348Z,14.20
2019-04-24T05:28:55.463Z,15.80
2019-04-24T05:30:41.735Z,13.00
2019-04-24T05:33:47.929Z,12.70
2019-04-24T05:34:56.196Z,12.00
2019-04-24T05:35:52.118Z,11.90
2019-04-24T05:39:12.293Z,12.30
2019-04-24T05:39:52.983Z,12.60
2019-04-24T05:42:04.855Z,11.70
2019-04-24T05:42:55.536Z,12.00
2019-04-24T05:44:46.439Z,11.80
2019-04-24T05:46:05.234Z,11.60
2019-04-24T05:46:51.149Z,11.40
2019-04-24T05:47:52.384Z,11.50
2019-04-24T05:50:05.584Z,11.90
2019-04-24T05:50:48.601Z,12.60
2019-04-24T05:51:49.036Z,12.00
2019-04-24T05:52:56.057Z,12.70
2019-04-24T05:53:55.591Z,13.50
2019-04-24T05:54:49.522Z,12.20
2019-04-24T05:57:02.295Z,12.20
2019-04-24T05:58:47.500Z,13.40
2019-04-24T06:00:56.121Z,12.50
2019-04-24T06:02:50.810Z,11.90
2019-04-24T06:05:56.919Z,11.60
2019-04-24T06:07:00.028Z,13.80
2019-04-24T06:08:06.654Z,10.90
2019-04-24T06:08:52.316Z,10.40
2019-04-24T06:09:48.370Z,9.60
2019-04-24T06:13:02.301Z,10.20
2019-04-24T06:13:48.350Z,9.70
2019-04-24T06:14:48.831Z,8.60
2019-04-24T06:15:53.287Z,8.70
2019-04-24T06:16:51.924Z,9.70
2019-04-24T06:18:01.306Z,8.90
2019-04-24T06:19:02.371Z,6.80
2019-04-24T06:20:32.734Z,7.60
2019-04-24T06:21:57.082Z,7.20
2019-04-24T06:23:07.910Z,7.10
2019-04-24T06:24:55.295Z,6.90
2019-04-24T06:26:06.460Z,6.90
2019-04-24T06:26:52.451Z,7.10
2019-04-24T06:31:10.267Z,7.20
2019-04-24T06:32:40.816Z,6.50
2019-04-24T06:35:16.282Z,6.60
2019-04-24T06:37:13.164Z,7.30
2019-04-24T06:37:55.789Z,6.30
2019-04-24T06:39:06.854Z,6.50
2019-04-24T06:39:58.202Z,6.60
2019-04-24T06:41:57.803Z,6.30
2019-04-24T06:42:57.868Z,6.20
2019-04-24T06:47:05.353Z,6.50
2019-04-24T06:48:06.699Z,7.40
2019-04-24T06:49:54.920Z,7.00
2019-04-24T06:51:51.584Z,7.80
2019-04-24T06:52:58.874Z,6.20
2019-04-24T06:53:50.958Z,6.10
2019-04-24T06:57:16.025Z,7.80
2019-04-24T06:57:58.936Z,6.00
2019-04-24T06:58:55.078Z,6.10
2019-04-24T06:59:56.338Z,6.10
2019-04-24T07:01:18.972Z,8.60
2019-04-24T07:01:52.937Z,6.90
2019-04-24T07:06:51.039Z,6.10
2019-04-24T07:07:47.157Z,6.80
2019-04-24T07:09:15.406Z,6.50
2019-04-24T07:10:18.220Z,7.40
2019-04-24T07:11:13.266Z,6.60
2019-04-24T07:12:18.210Z,7.00
2019-04-24T07:14:53.326Z,5.70
2019-04-24T07:15:58.240Z,6.40
2019-04-24T07:18:10.599Z,6.20
2019-04-24T07:18:48.132Z,6.60
2019-04-24T07:21:09.244Z,7.50
2019-04-24T07:22:01.175Z,6.90
2019-04-24T07:22:59.514Z,8.20
2019-04-24T07:24:02.027Z,7.90
2019-04-24T07:27:01.814Z,6.30
2019-04-24T07:28:58.109Z,6.70
2019-04-24T07:30:03.243Z,7.20
2019-04-24T07:31:09.515Z,7.50
2019-04-24T07:31:55.686Z,6.00
2019-04-24T07:33:15.049Z,7.70
2019-04-24T07:34:16.255Z,6.30
2019-04-24T07:35:02.072Z,6.10
2019-04-24T07:36:04.554Z,7.40
2019-04-24T07:36:55.881Z,6.10
2019-04-24T07:38:00.818Z,6.10
2019-04-24T07:38:52.482Z,6.20
2019-04-24T07:39:54.515Z,6.00
2019-04-24T07:41:12.164Z,6.30
2019-04-24T07:43:13.536Z,6.50
2019-04-24T07:44:00.698Z,6.70
2019-04-24T07:45:01.260Z,6.80
2019-04-24T07:47:57.760Z,6.70
2019-04-24T07:51:08.003Z,7.00
2019-04-24T07:53:03.967Z,5.70
2019-04-24T07:55:03.758Z,6.00
2019-04-24T07:56:12.631Z,5.40
2019-04-24T07:57:57.503Z,7.20
2019-04-24T08:01:09.835Z,6.00
2019-04-24T08:02:11.968Z,7.60
2019-04-24T08:03:17.816Z,6.00
2019-04-24T08:04:05.799Z,6.30
2019-04-24T08:05:13.763Z,6.30
2019-04-24T08:06:08.807Z,7.80
2019-04-24T08:07:06.665Z,7.90
2019-04-24T08:09:23.322Z,6.70
2019-04-24T08:10:14.368Z,8.60
2019-04-24T08:10:50.708Z,7.20
2019-04-24T08:13:03.763Z,7.30
2019-04-24T08:14:06.342Z,9.20
2019-04-24T08:16:01.185Z,6.20
2019-04-24T08:17:12.993Z,7.80
2019-04-24T08:18:05.493Z,7.60
2019-04-24T08:19:07.086Z,5.80
2019-04-24T08:22:07.062Z,7.80
2019-04-24T08:23:03.543Z,5.50
2019-04-24T08:24:00.948Z,6.70
2019-04-24T08:26:03.346Z,5.00
2019-04-24T08:27:15.635Z,5.60
2019-04-24T08:28:04.869Z,6.70
2019-04-24T08:31:16.507Z,7.70
2019-04-24T08:33:13.278Z,5.90
2019-04-24T08:35:01.128Z,5.80
2019-04-24T08:36:17.726Z,5.80
2019-04-24T08:37:10.999Z,7.00
2019-04-24T08:38:15.465Z,6.80
2019-04-24T08:40:10.712Z,6.60
2019-04-24T08:44:07.293Z,5.90
2019-04-24T08:46:10.224Z,7.20
2019-04-24T08:47:14.198Z,6.30
2019-04-24T08:48:12.413Z,5.30
2019-04-24T08:50:33.812Z,7.00
2019-04-24T08:52:20.981Z,5.20
2019-04-24T08:53:24.200Z,5.30
2019-04-24T08:55:12.368Z,6.80
2019-04-24T08:56:07.395Z,7.70
2019-04-24T08:57:06.757Z,6.20
2019-04-24T08:58:15.770Z,5.60
2019-04-24T08:59:17.554Z,5.40
2019-04-24T09:00:04.749Z,6.70
2019-04-24T09:01:58.392Z,6.10
2019-04-24T09:03:19.657Z,5.40
2019-04-24T09:07:03.067Z,6.50
2019-04-24T09:08:12.831Z,5.60
2019-04-24T09:09:06.357Z,6.20
2019-04-24T09:11:15.296Z,6.10
2019-04-24T09:12:16.531Z,6.10
2019-04-24T09:13:16.781Z,6.20
2019-04-24T09:14:22.787Z,5.40
2019-04-24T09:15:07.332Z,5.60
2019-04-24T09:17:09.859Z,5.10
2019-04-24T09:18:13.930Z,6.10
2019-04-24T09:22:09.067Z,5.40
2019-04-24T09:23:28.241Z,6.30
2019-04-24T09:25:18.147Z,5.20
2019-04-24T09:27:32.428Z,5.00
2019-04-24T09:28:06.904Z,5.50
2019-04-24T09:31:10.163Z,5.30
2019-04-24T09:34:02.228Z,6.60
2019-04-24T09:37:15.941Z,4.80
2019-04-24T09:38:10.745Z,5.50
2019-04-24T09:39:15.376Z,7.60
2019-04-24T09:41:25.429Z,5.10
2019-04-24T09:43:27.885Z,5.60
2019-04-24T09:44:03.941Z,6.70
2019-04-24T09:45:18.029Z,5.60
2019-04-24T09:46:09.320Z,6.00
2019-04-24T09:47:12.601Z,5.10
2019-04-24T09:48:17.630Z,6.80
2019-04-24T09:49:02.355Z,6.50
2019-04-24T09:50:15.139Z,7.70
2019-04-24T09:51:19.482Z,6.40
2019-04-24T09:52:21.402Z,5.80
2019-04-24T09:53:41.477Z,6.60
2019-04-24T09:54:12.606Z,6.20
2019-04-24T09:56:02.221Z,6.40
2019-04-24T09:58:13.837Z,6.30
2019-04-24T10:00:10.434Z,5.30
2019-04-24T10:02:27.716Z,4.90
2019-04-24T10:04:20.686Z,6.90
2019-04-24T10:05:23.904Z,5.30
2019-04-24T10:07:29.843Z,5.50
2019-04-24T10:08:11.155Z,5.30
2019-04-24T10:09:15.402Z,5.40
2019-04-24T10:10:19.888Z,6.40
2019-04-24T10:11:18.675Z,5.00
2019-04-24T10:12:38.717Z,6.80
2019-04-24T10:13:02.677Z,4.50
2019-04-24T10:14:10.099Z,5.10
2019-04-24T10:15:13.011Z,5.20
2019-04-24T10:16:32.885Z,4.50
2019-04-24T10:17:09.975Z,5.40
2019-04-24T10:18:08.377Z,7.00
2019-04-24T10:19:29.973Z,5.40
2019-04-24T10:22:04.995Z,5.60
2019-04-24T10:23:09.508Z,4.40
2019-04-24T10:24:15.559Z,8.20
2019-04-24T10:26:16.693Z,4.80
2019-04-24T10:27:22.625Z,5.30
2019-04-24T10:28:18.798Z,5.50
2019-04-24T10:30:20.584Z,4.70
2019-04-24T10:31:13.317Z,5.00
2019-04-24T10:33:23.042Z,5.60
2019-04-24T10:34:13.740Z,5.60
2019-04-24T10:35:20.024Z,4.80
2019-04-24T10:36:20.927Z,4.00
2019-04-24T10:37:47.271Z,5.30
2019-04-24T10:38:37.871Z,5.20
2019-04-24T10:39:56.755Z,6.00
2019-04-24T10:41:19.399Z,6.70
2019-04-24T10:42:06.320Z,4.20
2019-04-24T10:43:10.134Z,5.70
2019-04-24T10:44:11.228Z,6.00
2019-04-24T10:45:22.790Z,5.70
2019-04-24T10:46:15.547Z,4.70
2019-04-24T10:47:30.482Z,6.60
2019-04-24T10:49:25.082Z,4.30
2019-04-24T10:50:20.746Z,4.20
2019-04-24T10:51:15.274Z,7.00
2019-04-24T10:52:11.410Z,5.30
2019-04-24T10:54:12.475Z,5.80
2019-04-24T10:55:24.557Z,5.90
2019-04-24T10:57:27.305Z,5.30
2019-04-24T10:58:16.873Z,5.40
2019-04-24T10:59:16.855Z,4.30
2019-04-24T11:00:27.837Z,6.80
2019-04-24T11:01:23.469Z,8.50
2019-04-24T11:02:30.099Z,4.30
2019-04-24T11:03:29.995Z,4.00
2019-04-24T11:04:15.864Z,5.80
2019-04-24T11:06:22.246Z,4.60
2019-04-24T11:12:43.160Z,4.40
2019-04-24T11:16:42.132Z,6.00
2019-04-24T11:18:33.433Z,3.60
2019-04-24T11:19:26.684Z,4.60
2019-04-24T11:20:28.542Z,3.60
2019-04-24T11:22:18.457Z,4.70
2019-04-24T11:23:34.380Z,4.90
2019-04-24T11:25:27.893Z,5.50
2019-04-24T11:27:26.189Z,4.10
2019-04-24T11:28:33.384Z,4.90
2019-04-24T11:29:26.993Z,4.60
2019-04-24T11:30:28.922Z,4.10
2019-04-24T11:31:25.866Z,6.50
2019-04-24T11:32:31.002Z,5.70
2019-04-24T11:33:35.679Z,4.10
2019-04-24T11:34:51.409Z,4.60
2019-04-24T11:36:27.869Z,5.20
2019-04-24T11:37:14.209Z,3.90
2019-04-24T11:38:36.013Z,4.30
2019-04-24T11:39:37.232Z,5.10
2019-04-24T11:40:36.911Z,7.30
2019-04-24T11:41:24.395Z,4.20
2019-04-24T11:42:18.231Z,3.80
2019-04-24T11:43:26.429Z,4.30
2019-04-24T11:45:30.178Z,3.80
2019-04-24T11:46:48.446Z,4.10
2019-04-24T11:47:38.749Z,3.70
2019-04-24T11:48:32.890Z,4.10
2019-04-24T11:49:29.693Z,5.30
2019-04-24T11:50:44.390Z,5.70
2019-04-24T11:51:34.234Z,3.80
2019-04-24T11:52:43.598Z,6.40
2019-04-24T11:53:19.500Z,4.90
2019-04-24T11:54:38.967Z,4.70
2019-04-24T11:55:32.117Z,4.10
2019-04-24T11:56:33.560Z,4.80
2019-04-24T11:57:44.280Z,4.60
2019-04-24T11:58:27.110Z,4.00
2019-04-24T11:59:01.631Z,6.00
2019-04-24T12:00:08.395Z,4.70
2019-04-24T12:01:30.805Z,3.50
2019-04-24T12:02:32.401Z,4.10
2019-04-24T12:03:14.189Z,5.20
2019-04-24T12:05:40.538Z,4.90
2019-04-24T12:06:22.558Z,5.20
2019-04-24T12:07:30.567Z,2.90
2019-04-24T12:08:28.880Z,3.90
2019-04-24T12:09:16.145Z,4.30
2019-04-24T12:12:26.602Z,5.10
2019-04-24T12:14:23.029Z,3.30
2019-04-24T12:15:32.855Z,4.90
2019-04-24T12:16:21.775Z,5.00
2019-04-24T12:17:25.480Z,4.70
2019-04-24T12:18:29.176Z,4.30
2019-04-24T12:19:37.593Z,3.60
2019-04-24T12:20:49.994Z,6.60
2019-04-24T12:21:30.995Z,3.00
2019-04-24T12:22:21.043Z,5.00
2019-04-24T12:23:31.025Z,3.60
2019-04-24T12:25:34.906Z,3.20
2019-04-24T12:27:31.263Z,4.20
2019-04-24T12:28:34.077Z,2.80
2019-04-24T12:29:24.505Z,3.20
2019-04-24T12:30:30.636Z,5.30
2019-04-24T12:32:20.242Z,3.90
2019-04-24T12:33:33.750Z,2.60
2019-04-24T12:34:31.717Z,4.80
2019-04-24T12:35:22.114Z,8.00
2019-04-24T12:36:21.970Z,5.90
2019-04-24T12:38:37.756Z,3.80
2019-04-24T12:39:32.302Z,2.50
2019-04-24T12:40:37.101Z,3.30
2019-04-24T12:41:27.915Z,4.00
2019-04-24T12:42:38.929Z,2.90
2019-04-24T12:43:40.151Z,5.20
2019-04-24T12:44:26.590Z,2.80
2019-04-24T12:45:38.738Z,3.60
2019-04-24T12:46:32.403Z,6.70
2019-04-24T12:47:41.120Z,6.40
2019-04-24T12:48:30.038Z,6.00
2019-04-24T12:49:40.898Z,5.90
2019-04-24T12:50:28.033Z,5.40
2019-04-24T12:51:26.420Z,4.10
2019-04-24T12:53:32.465Z,6.00
2019-04-24T12:56:43.928Z,3.50
2019-04-24T12:57:26.267Z,4.10
2019-04-24T12:58:43.261Z,6.20
2019-04-24T13:00:31.407Z,4.20
2019-04-24T13:01:31.045Z,4.30
2019-04-24T13:02:29.674Z,6.40
2019-04-24T13:03:39.248Z,4.00
2019-04-24T13:06:11.270Z,3.90
2019-04-24T13:07:33.788Z,3.80
2019-04-24T13:08:47.047Z,4.80
2019-04-24T13:09:32.389Z,3.30
2019-04-24T13:11:29.383Z,3.10
2019-04-24T13:12:49.330Z,4.40
2019-04-24T13:13:41.932Z,3.30
2019-04-24T13:14:38.752Z,4.30
2019-04-24T13:15:34.841Z,3.50
2019-04-24T13:16:46.449Z,3.20
2019-04-24T13:18:59.522Z,3.90
2019-04-24T13:20:10.139Z,4.70
2019-04-24T13:21:12.338Z,5.10
2019-04-24T13:22:17.906Z,4.00
2019-04-24T13:23:20.483Z,4.00
2019-04-24T13:24:15.424Z,5.00
2019-04-24T13:25:31.975Z,3.90
2019-04-24T13:26:30.413Z,3.70
2019-04-24T13:27:39.494Z,4.60
2019-04-24T13:29:43.951Z,5.30
2019-04-24T13:30:43.973Z,4.90
2019-04-24T13:31:31.243Z,3.00
2019-04-24T13:32:36.903Z,4.50
2019-04-24T13:33:34.979Z,3.70
2019-04-24T13:34:49.625Z,4.60
2019-04-24T13:35:54.722Z,5.10
2019-04-24T13:36:44.017Z,4.20
2019-04-24T13:37:41.095Z,4.40
2019-04-24T13:38:39.815Z,3.90
2019-04-24T13:40:47.247Z,3.00
2019-04-24T13:41:49.067Z,6.80
2019-04-24T13:42:41.196Z,5.40
2019-04-24T13:43:59.873Z,4.50
2019-04-24T13:44:38.234Z,4.60
2019-04-24T13:45:46.205Z,2.60
2019-04-24T13:46:36.341Z,4.60
2019-04-24T13:47:39.118Z,5.40
2019-04-24T13:48:43.430Z,4.30
2019-04-24T13:49:37.535Z,3.30
2019-04-24T13:50:42.725Z,2.80
2019-04-24T13:51:42.170Z,3.90
2019-04-24T13:54:40.857Z,4.20
2019-04-24T13:55:50.271Z,4.40
2019-04-24T13:56:39.083Z,3.80
2019-04-24T13:57:41.211Z,6.40
2019-04-24T13:58:37.353Z,5.40
2019-04-24T13:59:52.590Z,4.90
2019-04-24T14:00:47.349Z,3.00
2019-04-24T14:03:11.403Z,4.80
2019-04-24T14:04:04.060Z,4.20
2019-04-24T14:04:30.405Z,3.60
2019-04-24T14:05:53.080Z,4.50
2019-04-24T14:07:56.643Z,3.80
2019-04-24T14:10:04.739Z,3.20
2019-04-24T14:11:02.371Z,3.90
2019-04-24T14:11:58.068Z,5.00
2019-04-24T14:13:44.565Z,4.70
2019-04-24T14:14:52.035Z,3.60
2019-04-24T14:15:47.377Z,4.60
2019-04-24T14:17:43.457Z,2.80
2019-04-24T14:18:48.218Z,5.80
2019-04-24T14:19:52.152Z,3.40
2019-04-24T14:20:38.035Z,5.30
2019-04-24T14:21:47.020Z,5.90
2019-04-24T14:22:42.990Z,4.00
2019-04-24T14:23:46.996Z,7.00
2019-04-24T14:24:44.559Z,5.20
2019-04-24T14:26:43.751Z,4.60
2019-04-24T14:27:42.587Z,4.10
2019-04-24T14:28:45.150Z,6.70
2019-04-24T14:29:42.491Z,4.60
2019-04-24T14:30:52.939Z,5.20
2019-04-24T14:31:44.452Z,6.00
2019-04-24T14:32:44.645Z,5.00
2019-04-24T14:33:42.064Z,4.20
2019-04-24T14:34:50.642Z,7.10
2019-04-24T14:36:58.233Z,3.70
2019-04-24T14:37:45.349Z,5.00
2019-04-24T14:39:53.960Z,5.80
2019-04-24T14:40:45.836Z,5.80
2019-04-24T14:41:53.053Z,4.50
2019-04-24T14:42:42.250Z,5.50
2019-04-24T14:44:04.767Z,3.60
2019-04-24T14:44:57.019Z,3.20
2019-04-24T14:45:54.403Z,5.00
2019-04-24T14:46:57.222Z,5.00
2019-04-24T14:47:37.955Z,3.70
2019-04-24T14:48:44.876Z,4.80
2019-04-24T14:49:56.248Z,4.70
2019-04-24T14:52:38.081Z,3.60
2019-04-24T14:53:41.937Z,4.30
2019-04-24T14:54:56.091Z,2.40
2019-04-24T14:55:49.918Z,2.20
2019-04-24T14:56:50.210Z,4.60
2019-04-24T14:57:44.077Z,2.50
2019-04-24T15:02:55.016Z,3.10
2019-04-24T15:03:48.743Z,4.50
2019-04-24T15:04:51.489Z,2.40
2019-04-24T15:06:51.990Z,4.60
2019-04-24T15:07:55.383Z,3.40
2019-04-24T15:08:55.823Z,4.00
2019-04-24T15:09:43.047Z,4.00
2019-04-24T15:10:44.067Z,2.90
2019-04-24T15:12:08.755Z,2.70
2019-04-24T15:12:55.020Z,3.00
2019-04-24T15:15:06.447Z,3.80
2019-04-24T15:16:11.477Z,2.30
2019-04-24T15:17:54.032Z,3.30
2019-04-24T15:20:51.017Z,5.20
2019-04-24T15:21:56.831Z,1.90
2019-04-24T15:22:54.858Z,3.60
2019-04-24T15:24:13.639Z,2.80
2019-04-24T15:25:00.850Z,2.70
2019-04-24T15:25:58.959Z,3.20
2019-04-24T15:26:55.316Z,3.20
2019-04-24T15:27:54.777Z,3.60
2019-04-24T15:29:00.224Z,3.40
2019-04-24T15:29:48.043Z,2.10
2019-04-24T15:31:48.697Z,5.50
2019-04-24T15:32:53.863Z,2.20
2019-04-24T15:33:57.542Z,2.50
2019-04-24T15:34:56.600Z,3.40
2019-04-24T15:35:46.231Z,2.30
2019-04-24T15:36:58.052Z,2.70
2019-04-24T15:37:55.847Z,2.50
2019-04-24T15:38:50.319Z,4.40
2019-04-24T15:40:15.037Z,3.10
2019-04-24T15:40:58.203Z,4.00
2019-04-24T15:43:06.478Z,4.40
2019-04-24T15:43:38.251Z,2.80
2019-04-24T15:44:58.457Z,4.60
2019-04-24T15:45:53.127Z,5.90
2019-04-24T15:46:58.808Z,3.20
2019-04-24T15:48:57.344Z,2.30
2019-04-24T15:49:54.403Z,3.80
2019-04-24T15:50:56.450Z,2.70
2019-04-24T15:51:32.525Z,3.10
2019-04-24T15:52:19.410Z,5.10
2019-04-24T15:53:19.505Z,2.50
2019-04-24T15:54:19.608Z,3.00
2019-04-24T15:55:19.709Z,2.70
2019-04-24T15:56:19.808Z,2.50
2019-04-24T15:57:21.323Z,1.70
2019-04-24T15:58:30.176Z,3.10
2019-04-24T15:59:47.888Z,2.60
2019-04-24T16:00:58.845Z,4.10
2019-04-24T16:01:49.910Z,3.50
2019-04-24T16:03:01.451Z,3.30
2019-04-24T16:04:55.778Z,3.30
2019-04-24T16:05:20.755Z,2.70
2019-04-24T16:06:20.859Z,2.90
2019-04-24T16:07:20.965Z,3.00
2019-04-24T16:08:21.068Z,3.30
2019-04-24T16:09:21.165Z,1.90
2019-04-24T16:10:21.269Z,2.60
2019-04-24T16:11:21.373Z,3.70
2019-04-24T16:12:21.474Z,2.80
2019-04-24T16:13:27.131Z,1.90
2019-04-24T16:14:51.668Z,3.80
2019-04-24T16:16:52.574Z,4.80
2019-04-24T16:19:52.878Z,4.60
2019-04-24T16:21:52.904Z,3.10
2019-04-24T16:23:03.933Z,3.80
2019-04-24T16:24:56.713Z,6.50
2019-04-24T16:25:49.665Z,2.80
2019-04-24T16:26:50.541Z,3.50
2019-04-24T16:28:00.626Z,3.20
2019-04-24T16:29:06.626Z,2.90
2019-04-24T16:30:00.833Z,3.70
2019-04-24T16:33:14.944Z,2.40
2019-04-24T16:33:56.701Z,5.70
2019-04-24T16:34:56.077Z,2.90
2019-04-24T16:36:05.408Z,2.30
2019-04-24T16:37:12.723Z,2.80
2019-04-24T16:38:02.281Z,2.90
2019-04-24T16:39:02.789Z,3.00
2019-04-24T16:40:16.735Z,3.00
2019-04-24T16:41:10.171Z,1.90
2019-04-24T16:43:09.322Z,2.70
2019-04-24T16:44:04.237Z,3.50
2019-04-24T16:44:57.241Z,2.80
2019-04-24T16:46:21.392Z,2.10
2019-04-24T16:48:46.940Z,3.00
2019-04-24T16:50:18.318Z,1.70
2019-04-24T16:51:16.446Z,2.40
2019-04-24T16:53:03.287Z,1.90
2019-04-24T16:54:10.463Z,2.70
2019-04-24T16:54:53.021Z,5.10
2019-04-24T16:55:45.133Z,1.70
2019-04-24T16:58:55.005Z,4.60
2019-04-24T17:00:00.651Z,4.90
2019-04-24T17:01:26.848Z,2.20
2019-04-24T17:03:15.220Z,4.30
2019-04-24T17:04:59.710Z,4.40
2019-04-24T17:06:01.777Z,3.90
2019-04-24T17:09:03.463Z,3.40
2019-04-24T17:10:14.471Z,3.90
2019-04-24T17:11:09.231Z,2.10
2019-04-24T17:13:05.192Z,3.10
2019-04-24T17:14:08.625Z,4.60
2019-04-24T17:14:57.951Z,5.90
2019-04-24T17:15:59.020Z,6.50
2019-04-24T17:17:13.194Z,6.70
2019-04-24T17:17:57.621Z,6.00
2019-04-24T17:19:11.934Z,5.90
2019-04-24T17:20:03.591Z,2.50
2019-04-24T17:21:27.272Z,2.80
2019-04-24T17:21:58.891Z,5.50
2019-04-24T17:24:00.388Z,3.50
2019-04-24T17:26:07.325Z,6.30
2019-04-24T17:27:12.765Z,4.20
2019-04-24T17:28:02.651Z,4.00
2019-04-24T17:29:10.281Z,5.00
2019-04-24T17:30:07.790Z,4.90
2019-04-24T17:31:01.559Z,6.20
2019-04-24T17:32:02.546Z,5.00
2019-04-24T17:33:17.770Z,3.10
2019-04-24T17:34:02.635Z,5.20
2019-04-24T17:36:12.863Z,2.80
2019-04-24T17:36:31.282Z,5.10
2019-04-24T17:37:30.242Z,3.80
2019-04-24T17:38:30.346Z,4.40
2019-04-24T17:39:30.447Z,3.00
2019-04-24T17:40:30.554Z,4.80
2019-04-24T17:41:38.565Z,2.80
2019-04-24T17:42:47.700Z,3.80
2019-04-24T17:44:02.903Z,2.40
2019-04-24T17:46:04.764Z,2.10
2019-04-24T17:47:13.008Z,2.60
2019-04-24T17:48:03.176Z,2.80
2019-04-24T17:49:13.809Z,3.50
2019-04-24T17:50:10.835Z,3.40
2019-04-24T17:51:04.100Z,2.20
2019-04-24T17:52:02.743Z,4.10
2019-04-24T17:53:07.150Z,4.70
2019-04-24T17:54:04.887Z,3.50
2019-04-24T17:54:55.409Z,2.90
2019-04-24T17:57:13.051Z,3.00
2019-04-24T17:57:48.886Z,2.40
2019-04-24T17:58:35.069Z,2.80
2019-04-24T17:59:33.117Z,2.20
2019-04-24T18:00:32.591Z,3.70
2019-04-24T18:01:32.687Z,2.60
2019-04-24T18:02:32.790Z,2.60
2019-04-24T18:03:32.897Z,3.60
2019-04-24T18:04:32.995Z,2.10
2019-04-24T18:05:33.138Z,3.40
2019-04-24T18:06:33.200Z,5.40
2019-04-24T18:07:33.288Z,4.50
2019-04-24T18:10:16.455Z,3.90
2019-04-24T18:11:16.555Z,4.20
2019-04-24T18:12:16.652Z,5.00
2019-04-24T18:13:16.753Z,4.20
2019-04-24T18:14:16.852Z,2.70
2019-04-24T18:15:16.953Z,4.60